createdAt,value
2018-03-30T00:09:46.327Z,22.3
2018-03-30T00:19:45.267Z,22.3
2018-03-30T00:29:44.737Z,22.3
2018-03-30T00:39:43.723Z,22.4
2018-03-30T00:49:43.350Z,22.3
2018-03-30T00:59:42.074Z,22.3
2018-03-30T01:09:41.240Z,22.3
2018-03-30T01:19:40.545Z,22.3
2018-03-30T01:29:39.680Z,22.3
2018-03-30T01:39:38.793Z,22.3
2018-03-30T01:49:38.040Z,22.2
2018-03-30T01:59:37.361Z,22.2
2018-03-30T02:09:36.638Z,22.2
2018-03-30T02:19:35.618Z,22.2
2018-03-30T02:29:34.887Z,22.2
2018-03-30T02:39:34.079Z,22.2
2018-03-30T02:49:33.307Z,22.1
2018-03-30T02:59:32.583Z,22.1
2018-03-30T03:09:31.653Z,22.2
2018-03-30T03:19:30.883Z,22.1
2018-03-30T03:29:30.231Z,22.1
2018-03-30T03:39:29.209Z,22.1
2018-03-30T03:49:28.517Z,22.1
2018-03-30T03:59:27.661Z,22.1
2018-03-30T04:09:26.850Z,22.2
2018-03-30T04:19:26.014Z,22.1
2018-03-30T04:29:25.556Z,22.1
2018-03-30T04:39:24.517Z,22.1
2018-03-30T04:49:23.771Z,22.1
2018-03-30T04:59:22.867Z,22.1
2018-03-30T05:09:22.168Z,22.3
2018-03-30T05:19:21.337Z,22.3
2018-03-30T05:29:21.087Z,22.4
2018-03-30T05:39:19.674Z,22.6
2018-03-30T05:49:19.029Z,22.6
2018-03-30T05:59:18.230Z,22.7
2018-03-30T06:09:17.402Z,22.8
2018-03-30T06:19:16.622Z,22.9
2018-03-30T06:29:16.046Z,23
2018-03-30T06:39:15.240Z,23.1
2018-03-30T06:49:14.133Z,23.3
2018-03-30T06:59:13.439Z,23.4
2018-03-30T07:09:12.836Z,23.5
2018-03-30T07:19:11.667Z,23.6
2018-03-30T07:29:11.147Z,23.8
2018-03-30T07:39:10.117Z,23.9
2018-03-30T07:49:09.489Z,24
2018-03-30T07:59:08.863Z,24.1
2018-03-30T08:09:07.849Z,24.2
2018-03-30T08:19:06.957Z,24.3
2018-03-30T08:29:06.462Z,24.4
2018-03-30T08:39:05.386Z,24.5
2018-03-30T08:49:04.640Z,24.5
2018-03-30T08:59:04.053Z,24.5
2018-03-30T09:09:03.172Z,24.5
2018-03-30T09:19:02.210Z,24.4
2018-03-30T09:29:01.698Z,24.4
2018-03-30T09:39:00.510Z,24.4
2018-03-30T09:48:59.785Z,24.4
2018-03-30T09:58:58.976Z,24.4
2018-03-30T10:08:58.227Z,24.4
2018-03-30T10:18:57.302Z,24.3
2018-03-30T10:28:56.652Z,24.3
2018-03-30T10:38:55.706Z,24.3
2018-03-30T10:48:54.984Z,24.3
2018-03-30T10:58:54.243Z,24.3
2018-03-30T11:08:53.643Z,24.2
2018-03-30T11:18:52.574Z,24.2
2018-03-30T11:28:52.121Z,24.2
2018-03-30T11:38:51.274Z,24.2
2018-03-30T11:48:50.184Z,24.2
2018-03-30T11:58:49.419Z,24.2
2018-03-30T12:08:48.852Z,24.3
2018-03-30T12:18:48.076Z,24.3
2018-03-30T12:28:47.321Z,24.2
2018-03-30T12:38:46.164Z,24.2
2018-03-30T12:48:45.331Z,24.1
2018-03-30T12:58:44.568Z,24
2018-03-30T13:08:43.777Z,23.9
2018-03-30T13:18:42.998Z,23.9
2018-03-30T13:28:42.714Z,23.9
2018-03-30T13:38:41.505Z,23.9
2018-03-30T13:48:40.635Z,23.8
2018-03-30T13:58:40.168Z,23.8
2018-03-30T14:08:39.054Z,23.7
2018-03-30T14:18:38.240Z,23.5
2018-03-30T14:28:37.654Z,23.4
2018-03-30T14:38:36.686Z,23.4
2018-03-30T14:48:36.205Z,23.4
2018-03-30T14:58:35.021Z,23.4
2018-03-30T15:08:34.228Z,23.4
2018-03-30T15:18:33.475Z,23.5
2018-03-30T15:28:32.911Z,23.5
2018-03-30T15:38:31.962Z,23.6
2018-03-30T15:48:30.944Z,23.5
2018-03-30T15:58:30.211Z,23.5
2018-03-30T16:08:29.439Z,23.5
2018-03-30T16:18:28.839Z,23.5
2018-03-30T16:28:27.894Z,23.4
2018-03-30T16:38:27.109Z,23.4
2018-03-30T16:48:26.295Z,23.4
2018-03-30T16:58:25.432Z,23.3
2018-03-30T17:08:24.631Z,23.3
2018-03-30T17:18:23.810Z,23.3
2018-03-30T17:28:23.107Z,23.3
2018-03-30T17:38:22.264Z,23.3
2018-03-30T17:48:21.504Z,23.3
2018-03-30T17:58:20.703Z,23.3
2018-03-30T18:08:20.260Z,23.3
2018-03-30T18:18:19.490Z,23.3
2018-03-30T18:28:18.287Z,23.2
2018-03-30T18:38:17.439Z,23.2
2018-03-30T18:48:16.711Z,23.2
2018-03-30T18:58:15.917Z,23.2
2018-03-30T19:08:15.190Z,23.3
2018-03-30T19:18:14.558Z,23.3
2018-03-30T19:28:13.632Z,23.3
2018-03-30T19:38:12.697Z,23.4
2018-03-30T19:48:11.963Z,23.4
2018-03-30T19:58:11.084Z,23.5
2018-03-30T20:08:10.474Z,23.5
2018-03-30T20:18:10.023Z,23.6
2018-03-30T20:28:08.768Z,23.6
2018-03-30T20:38:08.243Z,23.6
2018-03-30T20:48:07.192Z,23.6
2018-03-30T20:58:06.767Z,23.6
2018-03-30T21:08:05.524Z,23.6
2018-03-30T21:18:04.773Z,23.6
2018-03-30T21:28:04.072Z,23.6
2018-03-30T21:38:03.493Z,23.6
2018-03-30T21:48:02.447Z,23.6
2018-03-30T21:58:01.587Z,23.5
2018-03-30T22:08:01.071Z,23.5
2018-03-30T22:18:00.320Z,23.5
2018-03-30T22:27:59.427Z,23.6
2018-03-30T22:37:58.747Z,23.5
2018-03-30T22:47:57.638Z,23.6
2018-03-30T22:57:56.919Z,23.5
2018-03-30T23:07:56.076Z,23.6
2018-03-30T23:17:55.494Z,23.5
2018-03-30T23:27:54.808Z,23.5
2018-03-30T23:37:53.854Z,23.4
2018-03-30T23:47:52.764Z,23.4
2018-03-30T23:57:51.991Z,23.4
